Frederick, IL (62639)

1:14 AM CDT on August 29, 2015 (GMT -0500)
APRSWXNET | | Change Station
CLOSE
Current Station
Personal Weather Station
Location: Bader, IL
Elevation: 649 ft
Nearby Weather Stations

Elev 649 ft 40.14 °N, 90.42 °W | Updated 14 minutes ago

Overcast
Overcast
67 °F
Feels Like 67 °F
N
0
Wind Variable Wind from WSW
Gusts 4.0 mph

Today
High -- | Low -- °F
--% Chance of Precip.
Yesterday
High -- | Low -- °F
Precip. -- in
6:26 AM 7:38 PM
Full, 100% visible
Pressure 30.03 in
Visibility 10.0 miles
Clouds Scattered Clouds 6500 ft
Overcast 11000 ft
Dew Point 64 °F
Humidity 89%
Rainfall in
Snow Depth Not available.
UV 0 out of 12
Pollen 10.50 out of 12
Air Quality Not available.
Flu Activity Not available.
METAR KIJX 290555Z AUTO 17005KT 10SM -RA SCT065 OVC110 21/18 A3003 RMK AO2 T02100179 10239 20210 402590138
Pressure 30.03 in
Visibility 10.0 miles
Clouds Scattered Clouds 6500 ft
Overcast 11000 ft
Dew Point 64 °F
Humidity 89%
Rainfall in
Snow Depth Not available.
UV 0 out of 12
Pollen 10.50 out of 12
Air Quality Not available.
Flu Activity Not available.
METAR KIJX 290555Z AUTO 17005KT 10SM -RA SCT065 OVC110 21/18 A3003 RMK AO2 T02100179 10239 20210 402590138

10-Day Weather Forecast

×

Almanac

Astronomy

Aug. 29, 2015 Rise Set
Actual Time
Civil Twilight
Nautical Twilight
Astronomical Twilight
Moon
Length of Visible Light
Length of Day
Tomorrow will be .
, % of the Moon is Illuminated

Today's Extremes

State Highs State Lows

Community

WunderPhotos

Upload Photos

1,850,622 photos uploaded!

WunderBlogs® & News

Nearby

Air Quality

  Air Quality AQ Index Pollutant
Not available.

Snow Depth

Station Depth Elevation

Earthquake Activity

City Distance Mag. Time & Date
Minimum magnitude displayed is 2.5.

Coastal Water Temperatures

Place Temperature

Stations

Nearby Weather Stations

Station Location Temp. Windchill Dew Point Humidity Wind Precip. Elev Updated Type